sensor_id;sensor_type;location;lat;lon;timestamp;P1;durP1;ratioP1;P2;durP2;ratioP2
70052;SDS011;57398;52.032;4.376;2022-07-30T00:01:39;10.93;;;5.05;;
70052;SDS011;57398;52.032;4.376;2022-07-30T00:04:06;8.77;;;4.78;;
70052;SDS011;57398;52.032;4.376;2022-07-30T00:06:34;10.52;;;4.57;;
70052;SDS011;57398;52.032;4.376;2022-07-30T00:09:03;9.75;;;5.22;;
70052;SDS011;57398;52.032;4.376;2022-07-30T00:11:31;11.43;;;4.60;;
70052;SDS011;57398;52.032;4.376;2022-07-30T00:13:59;9.73;;;4.63;;
70052;SDS011;57398;52.032;4.376;2022-07-30T00:16:26;11.38;;;5.10;;
70052;SDS011;57398;52.032;4.376;2022-07-30T00:18:54;8.43;;;4.70;;
70052;SDS011;57398;52.032;4.376;2022-07-30T00:21:22;10.30;;;4.85;;
70052;SDS011;57398;52.032;4.376;2022-07-30T00:24:04;9.77;;;4.50;;
70052;SDS011;57398;52.032;4.376;2022-07-30T00:26:33;12.15;;;4.60;;
70052;SDS011;57398;52.032;4.376;2022-07-30T00:29:00;10.48;;;4.65;;
70052;SDS011;57398;52.032;4.376;2022-07-30T00:31:28;11.27;;;5.20;;
70052;SDS011;57398;52.032;4.376;2022-07-30T00:33:55;9.93;;;4.47;;
70052;SDS011;57398;52.032;4.376;2022-07-30T00:36:23;8.33;;;4.23;;
70052;SDS011;57398;52.032;4.376;2022-07-30T00:38:51;11.98;;;4.78;;
70052;SDS011;57398;52.032;4.376;2022-07-30T00:41:19;9.30;;;5.00;;
70052;SDS011;57398;52.032;4.376;2022-07-30T00:43:48;9.57;;;4.85;;
70052;SDS011;57398;52.032;4.376;2022-07-30T00:46:16;9.18;;;4.85;;
70052;SDS011;57398;52.032;4.376;2022-07-30T00:48:44;10.23;;;4.77;;
70052;SDS011;57398;52.032;4.376;2022-07-30T00:51:11;10.88;;;4.78;;
70052;SDS011;57398;52.032;4.376;2022-07-30T00:53:39;8.18;;;4.05;;
70052;SDS011;57398;52.032;4.376;2022-07-30T00:56:07;8.25;;;4.25;;
70052;SDS011;57398;52.032;4.376;2022-07-30T00:58:34;10.07;;;4.32;;
70052;SDS011;57398;52.032;4.376;2022-07-30T01:01:03;11.03;;;4.50;;
70052;SDS011;57398;52.032;4.376;2022-07-30T01:03:31;10.60;;;4.80;;
70052;SDS011;57398;52.032;4.376;2022-07-30T01:05:59;9.02;;;4.55;;
70052;SDS011;57398;52.032;4.376;2022-07-30T01:08:26;9.65;;;4.60;;
70052;SDS011;57398;52.032;4.376;2022-07-30T01:10:54;10.45;;;4.70;;
70052;SDS011;57398;52.032;4.376;2022-07-30T01:13:21;8.77;;;4.63;;
70052;SDS011;57398;52.032;4.376;2022-07-30T01:15:49;9.73;;;5.20;;
70052;SDS011;57398;52.032;4.376;2022-07-30T01:18:18;9.77;;;5.15;;
70052;SDS011;57398;52.032;4.376;2022-07-30T01:20:47;9.55;;;5.05;;
70052;SDS011;57398;52.032;4.376;2022-07-30T01:23:17;10.30;;;5.22;;
70052;SDS011;57398;52.032;4.376;2022-07-30T01:25:49;8.70;;;5.00;;
70052;SDS011;57398;52.032;4.376;2022-07-30T01:28:20;10.35;;;5.25;;
70052;SDS011;57398;52.032;4.376;2022-07-30T01:30:48;9.98;;;5.15;;
70052;SDS011;57398;52.032;4.376;2022-07-30T01:33:17;10.45;;;5.13;;
70052;SDS011;57398;52.032;4.376;2022-07-30T01:35:45;11.18;;;5.22;;
70052;SDS011;57398;52.032;4.376;2022-07-30T01:38:13;9.70;;;5.07;;
70052;SDS011;57398;52.032;4.376;2022-07-30T01:40:42;11.85;;;5.70;;
70052;SDS011;57398;52.032;4.376;2022-07-30T01:43:12;9.60;;;5.18;;
70052;SDS011;57398;52.032;4.376;2022-07-30T01:45:40;9.23;;;5.03;;
70052;SDS011;57398;52.032;4.376;2022-07-30T01:48:10;9.75;;;5.18;;
70052;SDS011;57398;52.032;4.376;2022-07-30T01:50:39;10.68;;;5.15;;
70052;SDS011;57398;52.032;4.376;2022-07-30T01:53:07;8.77;;;5.07;;
70052;SDS011;57398;52.032;4.376;2022-07-30T01:55:36;10.40;;;5.22;;
70052;SDS011;57398;52.032;4.376;2022-07-30T01:58:06;9.02;;;5.10;;
70052;SDS011;57398;52.032;4.376;2022-07-30T02:00:37;9.80;;;5.15;;
70052;SDS011;57398;52.032;4.376;2022-07-30T02:03:05;10.15;;;5.40;;
70052;SDS011;57398;52.032;4.376;2022-07-30T02:05:34;13.87;;;5.47;;
70052;SDS011;57398;52.032;4.376;2022-07-30T02:08:05;10.00;;;4.97;;
70052;SDS011;57398;52.032;4.376;2022-07-30T02:10:34;9.60;;;5.00;;
70052;SDS011;57398;52.032;4.376;2022-07-30T02:13:03;10.35;;;5.25;;
70052;SDS011;57398;52.032;4.376;2022-07-30T02:15:33;9.07;;;5.25;;
70052;SDS011;57398;52.032;4.376;2022-07-30T02:18:06;10.00;;;5.50;;
70052;SDS011;57398;52.032;4.376;2022-07-30T02:20:35;9.38;;;5.10;;
70052;SDS011;57398;52.032;4.376;2022-07-30T02:23:05;10.40;;;5.40;;
70052;SDS011;57398;52.032;4.376;2022-07-30T02:25:34;11.25;;;5.07;;
70052;SDS011;57398;52.032;4.376;2022-07-30T02:28:02;10.50;;;5.35;;
70052;SDS011;57398;52.032;4.376;2022-07-30T02:30:32;12.60;;;5.00;;
70052;SDS011;57398;52.032;4.376;2022-07-30T02:33:01;9.60;;;5.32;;
70052;SDS011;57398;52.032;4.376;2022-07-30T02:35:30;13.02;;;5.70;;
70052;SDS011;57398;52.032;4.376;2022-07-30T02:37:59;10.55;;;5.38;;
70052;SDS011;57398;52.032;4.376;2022-07-30T02:40:27;9.25;;;4.90;;
70052;SDS011;57398;52.032;4.376;2022-07-30T02:42:54;13.57;;;5.43;;
70052;SDS011;57398;52.032;4.376;2022-07-30T02:45:23;9.80;;;5.30;;
70052;SDS011;57398;52.032;4.376;2022-07-30T02:47:52;12.82;;;5.13;;
70052;SDS011;57398;52.032;4.376;2022-07-30T02:50:21;9.77;;;5.43;;
70052;SDS011;57398;52.032;4.376;2022-07-30T02:52:51;9.35;;;5.03;;
70052;SDS011;57398;52.032;4.376;2022-07-30T02:55:19;8.80;;;5.30;;
70052;SDS011;57398;52.032;4.376;2022-07-30T02:57:47;10.27;;;5.35;;
70052;SDS011;57398;52.032;4.376;2022-07-30T03:00:16;10.38;;;5.20;;
70052;SDS011;57398;52.032;4.376;2022-07-30T03:02:43;8.50;;;4.75;;
70052;SDS011;57398;52.032;4.376;2022-07-30T03:05:12;11.55;;;5.82;;
70052;SDS011;57398;52.032;4.376;2022-07-30T03:07:40;10.47;;;5.17;;
70052;SDS011;57398;52.032;4.376;2022-07-30T03:10:09;10.32;;;5.60;;
70052;SDS011;57398;52.032;4.376;2022-07-30T03:12:37;11.20;;;5.60;;
70052;SDS011;57398;52.032;4.376;2022-07-30T03:15:07;9.40;;;5.03;;
70052;SDS011;57398;52.032;4.376;2022-07-30T03:17:36;10.55;;;5.22;;
70052;SDS011;57398;52.032;4.376;2022-07-30T03:20:05;10.60;;;5.43;;
70052;SDS011;57398;52.032;4.376;2022-07-30T03:22:34;10.73;;;5.22;;
70052;SDS011;57398;52.032;4.376;2022-07-30T03:25:03;8.98;;;4.90;;
70052;SDS011;57398;52.032;4.376;2022-07-30T03:27:32;12.80;;;5.65;;
70052;SDS011;57398;52.032;4.376;2022-07-30T03:30:01;11.32;;;6.13;;
70052;SDS011;57398;52.032;4.376;2022-07-30T03:32:29;11.30;;;5.50;;
70052;SDS011;57398;52.032;4.376;2022-07-30T03:34:57;10.05;;;5.72;;
70052;SDS011;57398;52.032;4.376;2022-07-30T03:37:31;12.02;;;5.85;;
70052;SDS011;57398;52.032;4.376;2022-07-30T03:40:01;11.93;;;5.72;;
70052;SDS011;57398;52.032;4.376;2022-07-30T03:42:29;11.82;;;5.88;;
70052;SDS011;57398;52.032;4.376;2022-07-30T03:44:59;11.43;;;5.30;;
70052;SDS011;57398;52.032;4.376;2022-07-30T03:47:26;11.05;;;5.85;;
70052;SDS011;57398;52.032;4.376;2022-07-30T03:49:54;10.93;;;5.88;;
70052;SDS011;57398;52.032;4.376;2022-07-30T03:52:21;11.38;;;5.53;;
70052;SDS011;57398;52.032;4.376;2022-07-30T03:54:49;9.48;;;5.30;;
70052;SDS011;57398;52.032;4.376;2022-07-30T03:57:17;10.03;;;5.37;;
70052;SDS011;57398;52.032;4.376;2022-07-30T03:59:45;11.38;;;5.40;;
70052;SDS011;57398;52.032;4.376;2022-07-30T04:02:14;11.05;;;5.32;;
70052;SDS011;57398;52.032;4.376;2022-07-30T04:04:42;9.63;;;5.13;;
70052;SDS011;57398;52.032;4.376;2022-07-30T04:07:09;10.13;;;5.20;;
70052;SDS011;57398;52.032;4.376;2022-07-30T04:09:37;11.53;;;5.37;;
70052;SDS011;57398;52.032;4.376;2022-07-30T04:12:04;12.00;;;5.47;;
70052;SDS011;57398;52.032;4.376;2022-07-30T04:14:37;11.93;;;5.50;;
70052;SDS011;57398;52.032;4.376;2022-07-30T04:17:06;9.32;;;5.03;;
70052;SDS011;57398;52.032;4.376;2022-07-30T04:19:37;13.48;;;5.18;;
70052;SDS011;57398;52.032;4.376;2022-07-30T04:22:05;11.20;;;4.80;;
70052;SDS011;57398;52.032;4.376;2022-07-30T04:24:34;10.75;;;5.38;;
70052;SDS011;57398;52.032;4.376;2022-07-30T04:27:02;8.90;;;4.80;;
70052;SDS011;57398;52.032;4.376;2022-07-30T04:29:29;10.52;;;5.18;;
70052;SDS011;57398;52.032;4.376;2022-07-30T04:31:57;9.57;;;5.00;;
70052;SDS011;57398;52.032;4.376;2022-07-30T04:34:24;9.60;;;5.20;;
70052;SDS011;57398;52.032;4.376;2022-07-30T04:36:53;10.93;;;5.60;;
70052;SDS011;57398;52.032;4.376;2022-07-30T04:39:21;8.98;;;5.00;;
70052;SDS011;57398;52.032;4.376;2022-07-30T04:41:48;10.88;;;5.22;;
70052;SDS011;57398;52.032;4.376;2022-07-30T04:44:17;9.00;;;5.38;;
70052;SDS011;57398;52.032;4.376;2022-07-30T04:46:44;9.07;;;4.90;;
70052;SDS011;57398;52.032;4.376;2022-07-30T04:49:13;11.63;;;5.40;;
70052;SDS011;57398;52.032;4.376;2022-07-30T04:51:41;9.85;;;4.90;;
70052;SDS011;57398;52.032;4.376;2022-07-30T04:54:10;10.38;;;4.85;;
70052;SDS011;57398;52.032;4.376;2022-07-30T04:56:41;9.88;;;5.10;;
70052;SDS011;57398;52.032;4.376;2022-07-30T04:59:19;8.13;;;4.87;;
70052;SDS011;57398;52.032;4.376;2022-07-30T05:01:47;10.88;;;5.30;;
70052;SDS011;57398;52.032;4.376;2022-07-30T05:04:16;8.77;;;5.10;;
70052;SDS011;57398;52.032;4.376;2022-07-30T05:06:44;8.57;;;5.03;;
70052;SDS011;57398;52.032;4.376;2022-07-30T05:09:14;12.93;;;5.43;;
70052;SDS011;57398;52.032;4.376;2022-07-30T05:11:48;10.97;;;5.90;;
70052;SDS011;57398;52.032;4.376;2022-07-30T05:14:15;8.65;;;4.70;;
70052;SDS011;57398;52.032;4.376;2022-07-30T05:16:43;10.95;;;4.90;;
70052;SDS011;57398;52.032;4.376;2022-07-30T05:19:10;11.30;;;4.60;;
70052;SDS011;57398;52.032;4.376;2022-07-30T05:21:38;7.55;;;4.22;;
70052;SDS011;57398;52.032;4.376;2022-07-30T05:24:06;9.87;;;4.67;;
70052;SDS011;57398;52.032;4.376;2022-07-30T05:26:35;7.97;;;4.00;;
70052;SDS011;57398;52.032;4.376;2022-07-30T05:29:02;8.50;;;3.85;;
70052;SDS011;57398;52.032;4.376;2022-07-30T05:31:33;7.55;;;3.72;;
70052;SDS011;57398;52.032;4.376;2022-07-30T05:34:03;7.90;;;4.00;;
70052;SDS011;57398;52.032;4.376;2022-07-30T05:36:30;6.90;;;3.20;;
70052;SDS011;57398;52.032;4.376;2022-07-30T05:38:58;6.55;;;3.00;;
70052;SDS011;57398;52.032;4.376;2022-07-30T05:41:26;6.15;;;3.25;;
70052;SDS011;57398;52.032;4.376;2022-07-30T05:43:59;7.35;;;3.13;;
70052;SDS011;57398;52.032;4.376;2022-07-30T05:46:27;6.55;;;2.88;;
70052;SDS011;57398;52.032;4.376;2022-07-30T05:48:56;5.93;;;2.57;;
70052;SDS011;57398;52.032;4.376;2022-07-30T05:51:24;6.45;;;2.78;;
70052;SDS011;57398;52.032;4.376;2022-07-30T05:53:51;9.40;;;3.05;;
70052;SDS011;57398;52.032;4.376;2022-07-30T05:56:19;6.20;;;2.70;;
70052;SDS011;57398;52.032;4.376;2022-07-30T05:58:46;6.22;;;2.60;;
70052;SDS011;57398;52.032;4.376;2022-07-30T06:01:15;6.90;;;2.85;;
70052;SDS011;57398;52.032;4.376;2022-07-30T06:03:43;6.20;;;2.63;;
70052;SDS011;57398;52.032;4.376;2022-07-30T06:06:10;6.70;;;2.30;;
70052;SDS011;57398;52.032;4.376;2022-07-30T06:08:38;4.20;;;2.08;;
70052;SDS011;57398;52.032;4.376;2022-07-30T06:11:05;4.90;;;2.38;;
70052;SDS011;57398;52.032;4.376;2022-07-30T06:13:34;7.55;;;2.95;;
70052;SDS011;57398;52.032;4.376;2022-07-30T06:16:01;6.50;;;2.60;;
70052;SDS011;57398;52.032;4.376;2022-07-30T06:18:30;5.43;;;2.22;;
70052;SDS011;57398;52.032;4.376;2022-07-30T06:20:58;4.82;;;2.10;;
70052;SDS011;57398;52.032;4.376;2022-07-30T06:23:25;7.75;;;2.60;;
70052;SDS011;57398;52.032;4.376;2022-07-30T06:25:53;5.60;;;2.42;;
70052;SDS011;57398;52.032;4.376;2022-07-30T06:28:20;4.90;;;2.20;;
70052;SDS011;57398;52.032;4.376;2022-07-30T06:31:05;7.18;;;2.40;;
70052;SDS011;57398;52.032;4.376;2022-07-30T06:33:33;6.22;;;2.42;;
70052;SDS011;57398;52.032;4.376;2022-07-30T06:36:01;4.60;;;2.30;;
70052;SDS011;57398;52.032;4.376;2022-07-30T06:38:29;5.00;;;2.20;;
70052;SDS011;57398;52.032;4.376;2022-07-30T06:40:56;6.43;;;2.00;;
70052;SDS011;57398;52.032;4.376;2022-07-30T06:43:29;7.65;;;1.92;;
70052;SDS011;57398;52.032;4.376;2022-07-30T06:45:57;4.72;;;2.10;;
70052;SDS011;57398;52.032;4.376;2022-07-30T06:48:25;6.70;;;2.10;;
70052;SDS011;57398;52.032;4.376;2022-07-30T06:50:53;5.95;;;2.15;;
70052;SDS011;57398;52.032;4.376;2022-07-30T06:53:21;5.20;;;1.80;;
70052;SDS011;57398;52.032;4.376;2022-07-30T06:55:48;4.88;;;2.10;;
70052;SDS011;57398;52.032;4.376;2022-07-30T06:58:23;4.18;;;1.90;;
70052;SDS011;57398;52.032;4.376;2022-07-30T07:00:51;4.40;;;1.77;;
70052;SDS011;57398;52.032;4.376;2022-07-30T07:03:18;5.22;;;2.10;;
70052;SDS011;57398;52.032;4.376;2022-07-30T07:05:46;4.83;;;1.97;;
70052;SDS011;57398;52.032;4.376;2022-07-30T07:08:15;4.78;;;2.00;;
70052;SDS011;57398;52.032;4.376;2022-07-30T07:10:43;6.32;;;2.20;;
70052;SDS011;57398;52.032;4.376;2022-07-30T07:13:11;4.97;;;1.98;;
70052;SDS011;57398;52.032;4.376;2022-07-30T07:15:38;6.32;;;2.00;;
70052;SDS011;57398;52.032;4.376;2022-07-30T07:18:06;5.13;;;2.03;;
70052;SDS011;57398;52.032;4.376;2022-07-30T07:20:34;5.70;;;2.00;;
70052;SDS011;57398;52.032;4.376;2022-07-30T07:23:01;5.10;;;2.00;;
70052;SDS011;57398;52.032;4.376;2022-07-30T07:25:36;4.93;;;1.90;;
70052;SDS011;57398;52.032;4.376;2022-07-30T07:28:03;4.03;;;1.83;;
70052;SDS011;57398;52.032;4.376;2022-07-30T07:30:38;4.80;;;1.80;;
70052;SDS011;57398;52.032;4.376;2022-07-30T07:33:06;4.95;;;2.10;;
70052;SDS011;57398;52.032;4.376;2022-07-30T07:35:33;4.82;;;2.17;;
70052;SDS011;57398;52.032;4.376;2022-07-30T07:38:14;6.53;;;2.50;;
70052;SDS011;57398;52.032;4.376;2022-07-30T07:40:43;5.68;;;2.05;;
70052;SDS011;57398;52.032;4.376;2022-07-30T07:43:11;5.80;;;2.10;;
70052;SDS011;57398;52.032;4.376;2022-07-30T07:45:39;5.05;;;2.10;;
70052;SDS011;57398;52.032;4.376;2022-07-30T07:48:07;5.10;;;1.80;;
70052;SDS011;57398;52.032;4.376;2022-07-30T07:50:35;5.75;;;1.77;;
70052;SDS011;57398;52.032;4.376;2022-07-30T07:53:02;4.60;;;1.80;;
70052;SDS011;57398;52.032;4.376;2022-07-30T07:55:30;4.63;;;1.47;;
70052;SDS011;57398;52.032;4.376;2022-07-30T07:58:00;5.30;;;1.80;;
70052;SDS011;57398;52.032;4.376;2022-07-30T08:00:29;6.38;;;1.83;;
70052;SDS011;57398;52.032;4.376;2022-07-30T08:02:57;6.82;;;2.00;;
70052;SDS011;57398;52.032;4.376;2022-07-30T08:05:24;4.57;;;1.80;;
70052;SDS011;57398;52.032;4.376;2022-07-30T08:08:12;5.10;;;1.80;;
70052;SDS011;57398;52.032;4.376;2022-07-30T08:10:39;4.25;;;1.80;;
70052;SDS011;57398;52.032;4.376;2022-07-30T08:13:08;4.07;;;1.60;;
70052;SDS011;57398;52.032;4.376;2022-07-30T08:15:56;4.40;;;1.60;;
70052;SDS011;57398;52.032;4.376;2022-07-30T08:18:23;4.05;;;1.50;;
70052;SDS011;57398;52.032;4.376;2022-07-30T08:20:51;4.40;;;1.80;;
70052;SDS011;57398;52.032;4.376;2022-07-30T08:23:19;5.88;;;1.50;;
70052;SDS011;57398;52.032;4.376;2022-07-30T08:25:47;6.28;;;1.80;;
70052;SDS011;57398;52.032;4.376;2022-07-30T08:28:16;4.03;;;1.65;;
70052;SDS011;57398;52.032;4.376;2022-07-30T08:31:01;4.05;;;1.58;;
70052;SDS011;57398;52.032;4.376;2022-07-30T08:33:29;4.03;;;1.63;;
70052;SDS011;57398;52.032;4.376;2022-07-30T08:35:56;5.43;;;1.70;;
70052;SDS011;57398;52.032;4.376;2022-07-30T08:38:28;4.43;;;1.40;;
70052;SDS011;57398;52.032;4.376;2022-07-30T08:40:55;3.40;;;1.48;;
70052;SDS011;57398;52.032;4.376;2022-07-30T08:43:24;5.03;;;1.80;;
70052;SDS011;57398;52.032;4.376;2022-07-30T08:45:52;4.93;;;1.50;;
70052;SDS011;57398;52.032;4.376;2022-07-30T08:48:20;6.22;;;1.85;;
70052;SDS011;57398;52.032;4.376;2022-07-30T08:50:47;6.50;;;1.50;;
70052;SDS011;57398;52.032;4.376;2022-07-30T08:53:15;4.60;;;1.45;;
70052;SDS011;57398;52.032;4.376;2022-07-30T08:55:43;5.82;;;1.55;;
70052;SDS011;57398;52.032;4.376;2022-07-30T08:58:13;4.50;;;1.60;;
70052;SDS011;57398;52.032;4.376;2022-07-30T09:00:44;6.72;;;1.52;;
70052;SDS011;57398;52.032;4.376;2022-07-30T09:03:12;4.45;;;1.70;;
70052;SDS011;57398;52.032;4.376;2022-07-30T09:05:39;3.78;;;1.80;;
70052;SDS011;57398;52.032;4.376;2022-07-30T09:08:07;5.45;;;1.70;;
70052;SDS011;57398;52.032;4.376;2022-07-30T09:10:34;4.43;;;1.50;;
70052;SDS011;57398;52.032;4.376;2022-07-30T09:13:02;4.60;;;1.60;;
70052;SDS011;57398;52.032;4.376;2022-07-30T09:15:29;4.07;;;1.40;;
70052;SDS011;57398;52.032;4.376;2022-07-30T09:17:59;4.18;;;1.40;;
70052;SDS011;57398;52.032;4.376;2022-07-30T09:20:28;4.25;;;1.50;;
70052;SDS011;57398;52.032;4.376;2022-07-30T09:22:58;4.47;;;1.40;;
70052;SDS011;57398;52.032;4.376;2022-07-30T09:25:33;4.20;;;1.33;;
70052;SDS011;57398;52.032;4.376;2022-07-30T09:28:01;3.78;;;1.10;;
70052;SDS011;57398;52.032;4.376;2022-07-30T09:30:42;5.18;;;1.40;;
70052;SDS011;57398;52.032;4.376;2022-07-30T09:33:12;3.22;;;1.20;;
70052;SDS011;57398;52.032;4.376;2022-07-30T09:35:39;3.80;;;1.07;;
70052;SDS011;57398;52.032;4.376;2022-07-30T09:38:07;3.35;;;1.10;;
70052;SDS011;57398;52.032;4.376;2022-07-30T09:40:35;3.00;;;1.05;;
70052;SDS011;57398;52.032;4.376;2022-07-30T09:43:08;3.10;;;1.10;;
70052;SDS011;57398;52.032;4.376;2022-07-30T09:45:36;3.42;;;1.20;;
70052;SDS011;57398;52.032;4.376;2022-07-30T09:48:24;3.67;;;1.30;;
70052;SDS011;57398;52.032;4.376;2022-07-30T09:50:53;5.57;;;1.15;;
70052;SDS011;57398;52.032;4.376;2022-07-30T09:53:22;4.28;;;1.05;;
70052;SDS011;57398;52.032;4.376;2022-07-30T09:55:50;3.78;;;1.27;;
70052;SDS011;57398;52.032;4.376;2022-07-30T09:58:18;5.30;;;1.20;;
70052;SDS011;57398;52.032;4.376;2022-07-30T10:00:55;3.90;;;1.23;;
70052;SDS011;57398;52.032;4.376;2022-07-30T10:03:24;5.13;;;1.30;;
70052;SDS011;57398;52.032;4.376;2022-07-30T10:06:06;3.67;;;1.38;;
70052;SDS011;57398;52.032;4.376;2022-07-30T10:08:37;3.90;;;1.27;;
70052;SDS011;57398;52.032;4.376;2022-07-30T10:11:06;4.00;;;1.25;;
70052;SDS011;57398;52.032;4.376;2022-07-30T10:13:36;4.33;;;1.30;;
70052;SDS011;57398;52.032;4.376;2022-07-30T10:16:07;4.47;;;1.00;;
70052;SDS011;57398;52.032;4.376;2022-07-30T10:18:36;4.50;;;1.30;;
70052;SDS011;57398;52.032;4.376;2022-07-30T10:21:03;4.68;;;1.40;;
70052;SDS011;57398;52.032;4.376;2022-07-30T10:23:33;4.63;;;1.30;;
70052;SDS011;57398;52.032;4.376;2022-07-30T10:26:01;5.57;;;1.77;;
70052;SDS011;57398;52.032;4.376;2022-07-30T10:28:33;4.10;;;1.40;;
70052;SDS011;57398;52.032;4.376;2022-07-30T10:31:04;5.65;;;1.50;;
70052;SDS011;57398;52.032;4.376;2022-07-30T10:33:53;4.00;;;1.27;;
70052;SDS011;57398;52.032;4.376;2022-07-30T10:36:21;3.80;;;1.40;;
70052;SDS011;57398;52.032;4.376;2022-07-30T10:38:49;3.97;;;1.27;;
70052;SDS011;57398;52.032;4.376;2022-07-30T10:41:22;3.93;;;1.30;;
70052;SDS011;57398;52.032;4.376;2022-07-30T10:44:18;4.95;;;1.30;;
70052;SDS011;57398;52.032;4.376;2022-07-30T10:46:50;4.75;;;1.20;;
70052;SDS011;57398;52.032;4.376;2022-07-30T10:49:24;4.18;;;1.15;;
70052;SDS011;57398;52.032;4.376;2022-07-30T10:52:00;3.45;;;1.10;;
70052;SDS011;57398;52.032;4.376;2022-07-30T10:54:34;4.67;;;1.10;;
70052;SDS011;57398;52.032;4.376;2022-07-30T10:57:05;3.42;;;1.38;;
70052;SDS011;57398;52.032;4.376;2022-07-30T11:02:25;6.03;;;1.48;;
70052;SDS011;57398;52.032;4.376;2022-07-30T11:07:41;3.53;;;1.13;;
70052;SDS011;57398;52.032;4.376;2022-07-30T11:12:54;5.25;;;1.30;;
70052;SDS011;57398;52.032;4.376;2022-07-30T11:15:22;6.05;;;1.52;;
70052;SDS011;57398;52.032;4.376;2022-07-30T11:17:59;5.72;;;1.60;;
70052;SDS011;57398;52.032;4.376;2022-07-30T11:20:27;5.40;;;1.40;;
70052;SDS011;57398;52.032;4.376;2022-07-30T11:23:06;4.68;;;1.60;;
70052;SDS011;57398;52.032;4.376;2022-07-30T11:25:39;5.68;;;1.70;;
70052;SDS011;57398;52.032;4.376;2022-07-30T11:28:36;5.45;;;1.58;;
70052;SDS011;57398;52.032;4.376;2022-07-30T11:31:23;4.47;;;1.50;;
70052;SDS011;57398;52.032;4.376;2022-07-30T11:34:23;4.13;;;1.40;;
70052;SDS011;57398;52.032;4.376;2022-07-30T11:37:05;5.68;;;2.03;;
70052;SDS011;57398;52.032;4.376;2022-07-30T11:40:11;6.65;;;1.35;;
70052;SDS011;57398;52.032;4.376;2022-07-30T11:42:39;7.00;;;1.60;;
70052;SDS011;57398;52.032;4.376;2022-07-30T11:45:20;7.10;;;1.60;;
70052;SDS011;57398;52.032;4.376;2022-07-30T11:47:53;4.67;;;1.73;;
70052;SDS011;57398;52.032;4.376;2022-07-30T11:50:21;5.22;;;1.83;;
70052;SDS011;57398;52.032;4.376;2022-07-30T11:52:49;4.65;;;1.73;;
70052;SDS011;57398;52.032;4.376;2022-07-30T11:55:25;4.97;;;1.80;;
70052;SDS011;57398;52.032;4.376;2022-07-30T11:57:53;4.00;;;1.67;;
70052;SDS011;57398;52.032;4.376;2022-07-30T12:00:21;4.57;;;1.80;;
70052;SDS011;57398;52.032;4.376;2022-07-30T12:02:49;4.57;;;2.00;;
70052;SDS011;57398;52.032;4.376;2022-07-30T12:05:22;4.03;;;1.60;;
70052;SDS011;57398;52.032;4.376;2022-07-30T12:07:49;6.10;;;1.80;;
70052;SDS011;57398;52.032;4.376;2022-07-30T12:10:18;8.85;;;1.73;;
70052;SDS011;57398;52.032;4.376;2022-07-30T12:12:54;6.60;;;1.60;;
70052;SDS011;57398;52.032;4.376;2022-07-30T12:15:34;5.25;;;1.90;;
70052;SDS011;57398;52.032;4.376;2022-07-30T12:18:02;5.75;;;1.83;;
70052;SDS011;57398;52.032;4.376;2022-07-30T12:20:52;4.80;;;1.60;;
70052;SDS011;57398;52.032;4.376;2022-07-30T12:23:19;6.28;;;1.75;;
70052;SDS011;57398;52.032;4.376;2022-07-30T12:25:47;5.00;;;1.80;;
70052;SDS011;57398;52.032;4.376;2022-07-30T12:28:22;6.03;;;1.80;;
70052;SDS011;57398;52.032;4.376;2022-07-30T12:30:50;13.55;;;2.28;;
70052;SDS011;57398;52.032;4.376;2022-07-30T12:33:18;11.77;;;1.90;;
70052;SDS011;57398;52.032;4.376;2022-07-30T12:35:46;7.20;;;2.05;;
70052;SDS011;57398;52.032;4.376;2022-07-30T12:38:15;7.87;;;1.90;;
70052;SDS011;57398;52.032;4.376;2022-07-30T12:40:49;4.80;;;1.48;;
70052;SDS011;57398;52.032;4.376;2022-07-30T12:43:16;7.45;;;1.67;;
70052;SDS011;57398;52.032;4.376;2022-07-30T12:45:45;8.88;;;2.00;;
70052;SDS011;57398;52.032;4.376;2022-07-30T12:48:17;5.68;;;1.95;;
70052;SDS011;57398;52.032;4.376;2022-07-30T12:50:47;6.73;;;2.00;;
70052;SDS011;57398;52.032;4.376;2022-07-30T12:53:14;4.85;;;2.10;;
70052;SDS011;57398;52.032;4.376;2022-07-30T12:55:42;6.60;;;1.48;;
70052;SDS011;57398;52.032;4.376;2022-07-30T12:58:09;4.55;;;1.75;;
70052;SDS011;57398;52.032;4.376;2022-07-30T13:00:46;4.97;;;1.65;;
70052;SDS011;57398;52.032;4.376;2022-07-30T13:03:20;6.17;;;2.20;;
70052;SDS011;57398;52.032;4.376;2022-07-30T13:05:48;6.03;;;1.95;;
70052;SDS011;57398;52.032;4.376;2022-07-30T13:08:20;5.88;;;1.90;;
70052;SDS011;57398;52.032;4.376;2022-07-30T13:10:54;5.40;;;2.00;;
70052;SDS011;57398;52.032;4.376;2022-07-30T13:13:23;8.13;;;1.80;;
70052;SDS011;57398;52.032;4.376;2022-07-30T13:15:59;6.50;;;1.83;;
70052;SDS011;57398;52.032;4.376;2022-07-30T13:18:27;3.63;;;1.77;;
70052;SDS011;57398;52.032;4.376;2022-07-30T13:20:55;5.50;;;1.80;;
70052;SDS011;57398;52.032;4.376;2022-07-30T13:23:22;5.57;;;1.80;;
70052;SDS011;57398;52.032;4.376;2022-07-30T13:25:50;5.18;;;1.80;;
70052;SDS011;57398;52.032;4.376;2022-07-30T13:28:17;6.43;;;2.20;;
70052;SDS011;57398;52.032;4.376;2022-07-30T13:30:45;5.43;;;1.90;;
70052;SDS011;57398;52.032;4.376;2022-07-30T13:33:14;6.70;;;1.90;;
70052;SDS011;57398;52.032;4.376;2022-07-30T13:35:42;5.95;;;1.95;;
70052;SDS011;57398;52.032;4.376;2022-07-30T13:38:10;6.35;;;2.10;;
70052;SDS011;57398;52.032;4.376;2022-07-30T13:40:38;5.73;;;1.83;;
70052;SDS011;57398;52.032;4.376;2022-07-30T13:43:06;5.63;;;1.92;;
70052;SDS011;57398;52.032;4.376;2022-07-30T13:45:34;4.55;;;2.03;;
70052;SDS011;57398;52.032;4.376;2022-07-30T13:48:02;6.68;;;2.33;;
70052;SDS011;57398;52.032;4.376;2022-07-30T13:50:31;6.32;;;1.98;;
70052;SDS011;57398;52.032;4.376;2022-07-30T13:52:59;6.70;;;2.00;;
70052;SDS011;57398;52.032;4.376;2022-07-30T13:55:27;4.53;;;2.00;;
70052;SDS011;57398;52.032;4.376;2022-07-30T13:57:55;5.57;;;2.08;;
70052;SDS011;57398;52.032;4.376;2022-07-30T14:00:24;6.03;;;2.20;;
70052;SDS011;57398;52.032;4.376;2022-07-30T14:02:57;5.13;;;2.00;;
70052;SDS011;57398;52.032;4.376;2022-07-30T14:05:25;5.23;;;1.90;;
70052;SDS011;57398;52.032;4.376;2022-07-30T14:07:54;4.90;;;1.83;;
70052;SDS011;57398;52.032;4.376;2022-07-30T14:10:22;7.40;;;2.03;;
70052;SDS011;57398;52.032;4.376;2022-07-30T14:12:49;3.83;;;1.80;;
70052;SDS011;57398;52.032;4.376;2022-07-30T14:15:20;5.22;;;1.92;;
70052;SDS011;57398;52.032;4.376;2022-07-30T14:17:47;5.27;;;2.00;;
70052;SDS011;57398;52.032;4.376;2022-07-30T14:20:22;5.55;;;1.88;;
70052;SDS011;57398;52.032;4.376;2022-07-30T14:22:55;6.43;;;1.95;;
70052;SDS011;57398;52.032;4.376;2022-07-30T14:25:23;5.22;;;1.63;;
70052;SDS011;57398;52.032;4.376;2022-07-30T14:27:50;5.57;;;2.10;;
70052;SDS011;57398;52.032;4.376;2022-07-30T14:30:18;5.37;;;1.73;;
70052;SDS011;57398;52.032;4.376;2022-07-30T14:32:46;7.00;;;2.00;;
70052;SDS011;57398;52.032;4.376;2022-07-30T14:35:13;4.50;;;1.83;;
70052;SDS011;57398;52.032;4.376;2022-07-30T14:37:41;6.00;;;1.83;;
70052;SDS011;57398;52.032;4.376;2022-07-30T14:40:10;5.50;;;1.83;;
70052;SDS011;57398;52.032;4.376;2022-07-30T14:42:38;4.77;;;2.00;;
70052;SDS011;57398;52.032;4.376;2022-07-30T14:45:06;6.25;;;2.10;;
70052;SDS011;57398;52.032;4.376;2022-07-30T14:47:34;5.45;;;2.10;;
70052;SDS011;57398;52.032;4.376;2022-07-30T14:50:02;6.40;;;2.10;;
70052;SDS011;57398;52.032;4.376;2022-07-30T14:52:29;5.45;;;2.10;;
70052;SDS011;57398;52.032;4.376;2022-07-30T14:55:00;5.00;;;2.10;;
70052;SDS011;57398;52.032;4.376;2022-07-30T14:57:30;6.10;;;2.30;;
70052;SDS011;57398;52.032;4.376;2022-07-30T14:59:58;6.28;;;2.17;;
70052;SDS011;57398;52.032;4.376;2022-07-30T15:02:25;5.22;;;2.35;;
70052;SDS011;57398;52.032;4.376;2022-07-30T15:04:53;5.53;;;2.30;;
70052;SDS011;57398;52.032;4.376;2022-07-30T15:07:20;13.33;;;3.13;;
70052;SDS011;57398;52.032;4.376;2022-07-30T15:09:48;4.63;;;2.10;;